createdAt,value
2018-11-14T00:00:04.696Z,94.70
2018-11-14T00:01:04.728Z,94.80
2018-11-14T00:02:04.670Z,94.90
2018-11-14T00:03:04.653Z,93.98
2018-11-14T00:04:05.288Z,94.18
2018-11-14T00:05:04.823Z,94.59
2018-11-14T00:06:05.295Z,94.90
2018-11-14T00:07:05.281Z,93.98
2018-11-14T00:08:04.606Z,93.77
2018-11-14T00:09:04.638Z,93.77
2018-11-14T00:10:05.335Z,93.77
2018-11-14T00:11:04.573Z,94.90
2018-11-14T00:12:05.283Z,93.98
2018-11-14T00:13:04.550Z,94.49
2018-11-14T00:14:05.284Z,94.18
2018-11-14T00:15:07.308Z,94.53
2018-11-14T00:16:04.526Z,94.74
2018-11-14T00:17:04.507Z,94.84
2018-11-14T00:18:07.305Z,94.43
2018-11-14T00:19:05.285Z,94.74
2018-11-14T00:20:04.472Z,95.15
2018-11-14T00:21:04.810Z,94.95
2018-11-14T00:22:05.330Z,94.23
2018-11-14T00:23:04.440Z,94.47
2018-11-14T00:24:04.465Z,95.40
2018-11-14T00:25:04.423Z,95.40
2018-11-14T00:26:04.444Z,94.99
2018-11-14T00:27:04.418Z,95.30
2018-11-14T00:28:04.391Z,94.99
2018-11-14T00:29:04.379Z,94.99
2018-11-14T00:30:04.365Z,94.89
2018-11-14T00:31:06.303Z,94.89
2018-11-14T00:32:05.282Z,96.02
2018-11-14T00:33:04.423Z,96.02
2018-11-14T00:34:04.394Z,95.30
2018-11-14T00:35:04.346Z,95.30
2018-11-14T00:36:04.807Z,95.30
2018-11-14T00:37:04.292Z,94.78
2018-11-14T00:38:04.784Z,94.78
2018-11-14T00:39:04.273Z,95.30
2018-11-14T00:40:06.805Z,95.30
2018-11-14T00:41:04.266Z,94.99
2018-11-14T00:42:04.306Z,94.99
2018-11-14T00:43:04.240Z,95.50
2018-11-14T00:44:04.223Z,95.20
2018-11-14T00:45:04.214Z,95.45
2018-11-14T00:46:04.210Z,95.40
2018-11-14T00:47:04.202Z,95.45
2018-11-14T00:48:04.196Z,94.99
2018-11-14T00:49:05.789Z,95.20
2018-11-14T00:50:04.180Z,95.65
2018-11-14T00:51:04.145Z,95.45
2018-11-14T00:52:04.784Z,95.45
2018-11-14T00:53:04.131Z,96.48
2018-11-14T00:54:04.122Z,95.86
2018-11-14T00:55:04.146Z,95.76
2018-11-14T00:56:04.091Z,96.17
2018-11-14T00:57:04.798Z,96.17
2018-11-14T00:58:04.117Z,95.86
2018-11-14T00:59:04.057Z,95.24
2018-11-14T01:00:07.641Z,96.06
2018-11-14T01:01:05.781Z,96.06
2018-11-14T01:02:04.150Z,95.86
2018-11-14T01:03:04.785Z,95.55
2018-11-14T01:04:04.030Z,95.34
2018-11-14T01:05:04.030Z,95.45
2018-11-14T01:06:03.984Z,95.24
2018-11-14T01:07:03.970Z,95.34
2018-11-14T01:08:03.969Z,95.96
2018-11-14T01:09:03.990Z,95.86
2018-11-14T01:10:03.959Z,96.06
2018-11-14T01:11:03.933Z,96.27
2018-11-14T01:12:03.921Z,95.65
2018-11-14T01:13:10.862Z,95.96
2018-11-14T01:14:03.940Z,96.06
2018-11-14T01:15:04.307Z,96.01
2018-11-14T01:16:03.907Z,95.96
2018-11-14T01:17:03.863Z,96.17
2018-11-14T01:18:04.081Z,96.06
2018-11-14T01:19:03.845Z,95.70
2018-11-14T01:20:04.800Z,96.11
2018-11-14T01:21:03.873Z,95.80
2018-11-14T01:22:03.851Z,96.11
2018-11-14T01:23:04.787Z,95.90
2018-11-14T01:24:04.794Z,96.01
2018-11-14T01:25:06.816Z,96.31
2018-11-14T01:26:03.767Z,96.52
2018-11-14T01:27:08.368Z,96.73
2018-11-14T01:28:03.747Z,96.62
2018-11-14T01:29:03.743Z,96.21
2018-11-14T01:30:03.809Z,96.26
2018-11-14T01:31:03.714Z,96.67
2018-11-14T01:32:03.705Z,96.77
2018-11-14T01:33:04.294Z,96.98
2018-11-14T01:34:04.346Z,96.77
2018-11-14T01:35:03.682Z,97.19
2018-11-14T01:36:03.680Z,96.88
2018-11-14T01:37:04.282Z,96.73
2018-11-14T01:38:03.639Z,96.77
2018-11-14T01:39:03.625Z,96.62
2018-11-14T01:40:03.624Z,96.67
2018-11-14T01:41:05.323Z,96.88
2018-11-14T01:42:08.289Z,96.77
2018-11-14T01:43:03.614Z,96.67
2018-11-14T01:44:03.572Z,96.67
2018-11-14T01:45:03.567Z,96.67
2018-11-14T01:46:03.806Z,96.67
2018-11-14T01:47:05.287Z,97.29
2018-11-14T01:48:03.540Z,96.77
2018-11-14T01:49:04.285Z,96.56
2018-11-14T01:50:04.305Z,96.77
2018-11-14T01:51:03.509Z,96.56
2018-11-14T01:52:03.500Z,96.77
2018-11-14T01:53:03.469Z,97.29
2018-11-14T01:54:04.289Z,96.56
2018-11-14T01:55:03.461Z,97.29
2018-11-14T01:56:03.487Z,97.19
2018-11-14T01:57:03.448Z,96.67
2018-11-14T01:58:03.418Z,97.19
2018-11-14T01:59:03.410Z,97.08
2018-11-14T02:00:03.401Z,97.39
2018-11-14T02:01:03.801Z,96.98
2018-11-14T02:02:03.381Z,97.23
2018-11-14T02:03:03.399Z,97.39
2018-11-14T02:04:03.355Z,97.39
2018-11-14T02:05:03.346Z,97.29
2018-11-14T02:06:03.798Z,97.08
2018-11-14T02:07:03.321Z,97.39
2018-11-14T02:08:05.294Z,96.77
2018-11-14T02:09:03.344Z,96.77
2018-11-14T02:10:03.307Z,96.47
2018-11-14T02:11:07.844Z,97.39
2018-11-14T02:12:03.803Z,97.19
2018-11-14T02:13:03.251Z,97.33
2018-11-14T02:14:03.783Z,97.13
2018-11-14T02:15:03.239Z,97.39
2018-11-14T02:16:03.313Z,97.44
2018-11-14T02:17:03.206Z,96.92
2018-11-14T02:18:03.239Z,97.33
2018-11-14T02:19:03.782Z,97.13
2018-11-14T02:20:03.191Z,97.44
2018-11-14T02:21:03.205Z,97.44
2018-11-14T02:22:03.152Z,97.54
2018-11-14T02:23:05.790Z,97.23
2018-11-14T02:24:03.142Z,96.92
2018-11-14T02:25:05.783Z,97.02
2018-11-14T02:26:03.295Z,97.13
2018-11-14T02:27:03.156Z,96.98
2018-11-14T02:28:03.826Z,97.13
2018-11-14T02:29:03.092Z,97.33
2018-11-14T02:30:03.113Z,97.54
2018-11-14T02:31:03.390Z,97.23
2018-11-14T02:32:04.859Z,97.02
2018-11-14T02:33:03.061Z,97.02
2018-11-14T02:34:03.103Z,96.92
2018-11-14T02:35:03.072Z,97.17
2018-11-14T02:36:03.078Z,97.13
2018-11-14T02:37:03.046Z,97.28
2018-11-14T02:38:03.085Z,97.64
2018-11-14T02:39:03.810Z,97.07
2018-11-14T02:40:03.784Z,96.86
2018-11-14T02:41:02.966Z,97.07
2018-11-14T02:42:02.931Z,96.97
2018-11-14T02:43:02.922Z,97.49
2018-11-14T02:44:02.929Z,97.69
2018-11-14T02:45:02.906Z,97.59
2018-11-14T02:46:02.918Z,97.17
2018-11-14T02:47:02.921Z,97.07
2018-11-14T02:48:02.866Z,97.38
2018-11-14T02:49:02.857Z,97.17
2018-11-14T02:50:02.896Z,97.49
2018-11-14T02:51:03.805Z,96.86
2018-11-14T02:52:02.834Z,96.97
2018-11-14T02:53:02.816Z,97.17
2018-11-14T02:54:03.042Z,97.07
2018-11-14T02:55:05.798Z,97.07
2018-11-14T02:56:02.794Z,97.38
2018-11-14T02:57:02.798Z,97.17
2018-11-14T02:58:02.792Z,97.17
2018-11-14T02:59:02.748Z,97.17
2018-11-14T03:00:02.738Z,97.17
2018-11-14T03:01:02.830Z,97.28
2018-11-14T03:02:02.735Z,97.17
2018-11-14T03:03:02.717Z,97.07
2018-11-14T03:04:03.288Z,97.49
2018-11-14T03:05:02.692Z,97.49
2018-11-14T03:06:02.831Z,97.69
2018-11-14T03:07:02.671Z,97.49
2018-11-14T03:08:02.677Z,97.79
2018-11-14T03:09:03.328Z,97.59
2018-11-14T03:10:02.634Z,97.28
2018-11-14T03:11:02.819Z,97.32
2018-11-14T03:12:03.315Z,97.17
2018-11-14T03:13:02.647Z,97.07
2018-11-14T03:14:02.597Z,97.11
2018-11-14T03:15:02.683Z,97.28
2018-11-14T03:16:04.379Z,97.22
2018-11-14T03:17:02.575Z,97.07
2018-11-14T03:18:02.548Z,97.01
2018-11-14T03:19:02.544Z,97.01
2018-11-14T03:20:02.552Z,97.11
2018-11-14T03:21:02.632Z,97.07
2018-11-14T03:22:02.521Z,97.53
2018-11-14T03:23:02.517Z,97.63
2018-11-14T03:24:02.557Z,97.32
2018-11-14T03:25:03.534Z,97.74
2018-11-14T03:26:03.336Z,98.05
2018-11-14T03:27:03.312Z,97.53
2018-11-14T03:28:03.298Z,98.05
2018-11-14T03:29:02.459Z,97.63
2018-11-14T03:30:02.428Z,98.15
2018-11-14T03:31:02.812Z,97.53
2018-11-14T03:32:02.427Z,97.42
2018-11-14T03:33:02.457Z,97.63
2018-11-14T03:34:05.337Z,97.67
2018-11-14T03:35:02.394Z,97.57
2018-11-14T03:36:02.477Z,97.53
2018-11-14T03:37:02.402Z,97.57
2018-11-14T03:38:02.349Z,97.57
2018-11-14T03:39:02.343Z,97.57
2018-11-14T03:40:02.330Z,97.57
2018-11-14T03:41:02.819Z,98.09
2018-11-14T03:42:02.313Z,97.42
2018-11-14T03:43:02.297Z,97.67
2018-11-14T03:44:02.794Z,97.67
2018-11-14T03:45:02.792Z,97.47
2018-11-14T03:46:02.284Z,97.67
2018-11-14T03:47:02.258Z,98.09
2018-11-14T03:48:02.255Z,97.67
2018-11-14T03:49:02.238Z,97.88
2018-11-14T03:50:02.227Z,98.30
2018-11-14T03:51:02.303Z,97.36
2018-11-14T03:52:02.232Z,97.57
2018-11-14T03:53:02.800Z,97.67
2018-11-14T03:54:02.185Z,97.88
2018-11-14T03:55:02.178Z,97.32
2018-11-14T03:56:02.307Z,97.57
2018-11-14T03:57:02.208Z,97.67
2018-11-14T03:58:02.201Z,97.67
2018-11-14T03:59:02.131Z,97.36
2018-11-14T04:00:08.786Z,97.57
2018-11-14T04:01:02.310Z,96.95
2018-11-14T04:02:04.790Z,97.36
2018-11-14T04:03:02.093Z,97.26
2018-11-14T04:04:02.091Z,97.26
2018-11-14T04:05:02.065Z,97.47
2018-11-14T04:06:02.096Z,97.10
2018-11-14T04:07:02.050Z,97.16
2018-11-14T04:08:02.813Z,97.83
2018-11-14T04:09:02.095Z,97.67
2018-11-14T04:10:02.027Z,97.72
2018-11-14T04:11:02.343Z,97.83
2018-11-14T04:12:02.784Z,97.72
2018-11-14T04:13:02.787Z,98.03
2018-11-14T04:14:02.810Z,97.72
2018-11-14T04:15:01.968Z,97.57
2018-11-14T04:16:02.312Z,97.52
2018-11-14T04:17:02.795Z,97.93
2018-11-14T04:18:03.005Z,98.13
2018-11-14T04:19:01.923Z,98.24
2018-11-14T04:20:01.942Z,98.13
2018-11-14T04:21:01.923Z,98.24
2018-11-14T04:22:01.894Z,98.34
2018-11-14T04:23:01.903Z,98.75
2018-11-14T04:24:01.870Z,98.75
2018-11-14T04:25:04.786Z,98.75
2018-11-14T04:26:01.849Z,98.75
2018-11-14T04:27:01.854Z,98.55
2018-11-14T04:28:03.782Z,98.24
2018-11-14T04:29:01.825Z,98.55
2018-11-14T04:30:01.805Z,98.75
2018-11-14T04:31:01.810Z,98.55
2018-11-14T04:32:01.805Z,98.44
2018-11-14T04:33:01.775Z,98.34
2018-11-14T04:34:01.778Z,98.44
2018-11-14T04:35:01.749Z,98.75
2018-11-14T04:36:01.749Z,98.55
2018-11-14T04:37:01.780Z,98.55
2018-11-14T04:38:01.711Z,98.30
2018-11-14T04:39:01.754Z,98.03
2018-11-14T04:40:01.718Z,98.03
2018-11-14T04:41:01.692Z,98.71
2018-11-14T04:42:01.689Z,98.19
2018-11-14T04:43:01.679Z,97.72
2018-11-14T04:44:01.650Z,98.24
2018-11-14T04:45:02.291Z,98.03
2018-11-14T04:46:01.630Z,98.13
2018-11-14T04:47:01.636Z,98.13
2018-11-14T04:48:01.659Z,98.13
2018-11-14T04:49:02.291Z,98.24
2018-11-14T04:50:01.585Z,98.19
2018-11-14T04:51:02.285Z,98.19
2018-11-14T04:52:01.809Z,97.93
2018-11-14T04:53:01.564Z,98.34
2018-11-14T04:54:01.555Z,98.34
2018-11-14T04:55:04.287Z,98.13
2018-11-14T04:56:01.534Z,97.87
2018-11-14T04:57:01.539Z,97.72
2018-11-14T04:58:02.285Z,98.28
2018-11-14T04:59:01.522Z,98.08
2018-11-14T05:00:01.484Z,98.08
2018-11-14T05:01:01.689Z,98.28
2018-11-14T05:02:01.831Z,98.08
2018-11-14T05:03:01.449Z,98.18
2018-11-14T05:04:02.284Z,98.60
2018-11-14T05:05:01.429Z,98.70
2018-11-14T05:06:01.417Z,98.08
2018-11-14T05:07:01.810Z,98.70
2018-11-14T05:08:01.401Z,98.91
2018-11-14T05:09:01.395Z,98.12
2018-11-14T05:10:01.384Z,97.97
2018-11-14T05:11:01.383Z,98.12
2018-11-14T05:12:02.305Z,98.12
2018-11-14T05:13:02.406Z,98.74
2018-11-14T05:14:02.281Z,98.64
2018-11-14T05:15:01.332Z,98.22
2018-11-14T05:16:01.316Z,98.74
2018-11-14T05:17:01.320Z,98.85
2018-11-14T05:18:01.289Z,99.05
2018-11-14T05:19:02.777Z,98.85
2018-11-14T05:20:01.268Z,98.95
2018-11-14T05:21:01.279Z,98.95
2018-11-14T05:22:01.313Z,98.85
2018-11-14T05:23:01.254Z,98.74
2018-11-14T05:24:01.240Z,99.16
2018-11-14T05:25:01.219Z,98.95
2018-11-14T05:26:01.206Z,98.85
2018-11-14T05:27:01.350Z,98.85
2018-11-14T05:28:01.792Z,99.16
2018-11-14T05:29:01.169Z,99.05
2018-11-14T05:30:01.782Z,99.05
2018-11-14T05:31:01.152Z,98.54
2018-11-14T05:32:01.390Z,99.05
2018-11-14T05:33:01.132Z,98.95
2018-11-14T05:34:01.115Z,99.05
2018-11-14T05:35:01.123Z,98.64
2018-11-14T05:36:01.096Z,98.43
2018-11-14T05:37:01.100Z,98.64
2018-11-14T05:38:01.099Z,98.43
2018-11-14T05:39:01.079Z,98.33
2018-11-14T05:40:01.160Z,98.33
2018-11-14T05:41:01.804Z,98.43
2018-11-14T05:42:02.328Z,98.12
2018-11-14T05:43:01.834Z,98.79
2018-11-14T05:44:02.045Z,98.74
2018-11-14T05:45:01.815Z,98.64
2018-11-14T05:46:02.830Z,98.74
2018-11-14T05:47:00.994Z,98.33
2018-11-14T05:48:01.807Z,98.85
2018-11-14T05:49:01.001Z,98.64
2018-11-14T05:50:02.802Z,98.85
2018-11-14T05:51:00.937Z,98.95
2018-11-14T05:52:02.790Z,99.05
2018-11-14T05:53:00.927Z,99.05
2018-11-14T05:54:01.803Z,99.26
2018-11-14T05:55:01.033Z,98.85
2018-11-14T05:56:00.939Z,99.05
2018-11-14T05:57:01.304Z,99.05
2018-11-14T05:58:00.861Z,98.74
2018-11-14T05:59:00.847Z,99.26
2018-11-14T06:00:00.841Z,99.01
2018-11-14T06:01:00.837Z,98.70
2018-11-14T06:02:02.815Z,98.60
2018-11-14T06:03:00.816Z,98.70
2018-11-14T06:04:00.801Z,98.70
2018-11-14T06:05:00.796Z,98.60
2018-11-14T06:06:01.281Z,98.18
2018-11-14T06:07:01.346Z,98.02
2018-11-14T06:08:00.831Z,98.22
2018-11-14T06:09:00.771Z,98.22
2018-11-14T06:10:00.731Z,98.33
2018-11-14T06:11:00.720Z,98.12
2018-11-14T06:12:00.709Z,98.02
2018-11-14T06:13:00.731Z,98.33
2018-11-14T06:14:01.292Z,98.02
2018-11-14T06:15:01.291Z,98.48
2018-11-14T06:16:00.688Z,98.12
2018-11-14T06:17:00.659Z,98.17
2018-11-14T06:18:00.870Z,98.54
2018-11-14T06:19:00.698Z,98.33
2018-11-14T06:20:00.704Z,98.33
2018-11-14T06:21:07.304Z,98.02
2018-11-14T06:22:01.439Z,98.17
2018-11-14T06:23:01.300Z,98.17
2018-11-14T06:24:00.647Z,98.54
2018-11-14T06:25:02.331Z,97.91
2018-11-14T06:26:00.640Z,98.27
2018-11-14T06:27:00.560Z,98.54
2018-11-14T06:28:00.559Z,98.69
2018-11-14T06:29:00.533Z,98.48
2018-11-14T06:30:00.560Z,99.31
2018-11-14T06:31:00.508Z,99.05
2018-11-14T06:32:03.351Z,99.16
2018-11-14T06:33:01.522Z,99.10
2018-11-14T06:34:00.533Z,99.16
2018-11-14T06:35:01.304Z,98.95
2018-11-14T06:36:00.501Z,98.43
2018-11-14T06:37:01.346Z,98.22
2018-11-14T06:38:00.643Z,98.58
2018-11-14T06:39:00.438Z,98.69
2018-11-14T06:40:00.429Z,98.64
2018-11-14T06:41:00.431Z,98.64
2018-11-14T06:42:00.406Z,98.64
2018-11-14T06:43:00.391Z,98.64
2018-11-14T06:44:00.833Z,98.64
2018-11-14T06:45:00.797Z,98.54
2018-11-14T06:46:01.281Z,98.54
2018-11-14T06:47:01.279Z,98.69
2018-11-14T06:48:00.340Z,98.12
2018-11-14T06:49:00.315Z,98.12
2018-11-14T06:50:02.367Z,98.69
2018-11-14T06:51:00.300Z,98.02
2018-11-14T06:52:00.285Z,98.90
2018-11-14T06:53:00.346Z,98.64
2018-11-14T06:54:00.269Z,98.79
2018-11-14T06:55:00.284Z,98.79
2018-11-14T06:56:00.240Z,98.58
2018-11-14T06:57:00.229Z,98.54
2018-11-14T06:58:00.242Z,98.69
2018-11-14T06:59:00.406Z,98.54
2018-11-14T07:00:00.246Z,98.64
2018-11-14T07:01:01.782Z,98.95
2018-11-14T07:02:00.189Z,99.26
2018-11-14T07:03:00.224Z,99.16
2018-11-14T07:04:00.161Z,98.95
2018-11-14T07:05:00.213Z,98.85
2018-11-14T07:06:00.404Z,98.95
2018-11-14T07:07:01.779Z,99.16
2018-11-14T07:08:00.205Z,99.01
2018-11-14T07:09:00.111Z,98.33
2018-11-14T07:10:00.104Z,99.01
2018-11-14T07:11:00.170Z,97.77
2018-11-14T07:12:00.085Z,98.18
2018-11-14T07:13:00.342Z,98.43
2018-11-14T07:14:00.802Z,97.77
2018-11-14T07:15:00.096Z,97.91
2018-11-14T07:16:00.026Z,98.22
2018-11-14T07:17:00.782Z,98.22
2018-11-14T07:18:00.116Z,98.28
2018-11-14T07:19:00.779Z,98.08
2018-11-14T07:19:59.986Z,98.22
2018-11-14T07:20:59.979Z,98.08
2018-11-14T07:21:59.966Z,97.87
2018-11-14T07:23:01.793Z,97.97
2018-11-14T07:23:59.942Z,98.39
2018-11-14T07:24:59.942Z,98.28
2018-11-14T07:25:59.930Z,97.87
2018-11-14T07:27:00.987Z,98.49
2018-11-14T07:27:59.918Z,98.49
2018-11-14T07:29:00.776Z,98.24
2018-11-14T07:29:59.877Z,98.03
2018-11-14T07:30:59.870Z,98.03
2018-11-14T07:31:59.926Z,97.72
2018-11-14T07:32:59.887Z,97.78
2018-11-14T07:33:59.854Z,97.72
2018-11-14T07:34:59.859Z,97.67
2018-11-14T07:35:59.815Z,97.78
2018-11-14T07:36:59.826Z,97.57
2018-11-14T07:38:01.866Z,97.57
2018-11-14T07:38:59.798Z,97.16
2018-11-14T07:39:59.780Z,97.16
2018-11-14T07:41:00.276Z,97.06
2018-11-14T07:41:59.782Z,97.11
2018-11-14T07:42:59.742Z,97.22
2018-11-14T07:44:00.280Z,97.11
2018-11-14T07:44:59.719Z,97.22
2018-11-14T07:45:59.710Z,97.22
2018-11-14T07:46:59.695Z,97.53
2018-11-14T07:48:00.075Z,96.70
2018-11-14T07:48:59.714Z,96.70
2018-11-14T07:50:00.332Z,97.59
2018-11-14T07:51:00.281Z,97.49
2018-11-14T07:51:59.641Z,96.97
2018-11-14T07:52:59.650Z,96.66
2018-11-14T07:53:59.628Z,96.76
2018-11-14T07:54:59.613Z,96.76
2018-11-14T07:55:59.616Z,96.45
2018-11-14T07:56:59.621Z,96.86
2018-11-14T07:57:59.622Z,96.55
2018-11-14T07:58:59.568Z,96.76
2018-11-14T07:59:59.601Z,95.94
2018-11-14T08:00:59.555Z,96.14
2018-11-14T08:02:00.289Z,96.34
2018-11-14T08:02:59.790Z,96.55
2018-11-14T08:04:01.286Z,96.24
2018-11-14T08:04:59.504Z,96.24
2018-11-14T08:05:59.530Z,96.09
2018-11-14T08:06:59.495Z,95.99
2018-11-14T08:08:00.443Z,95.83
2018-11-14T08:09:00.336Z,96.03
2018-11-14T08:09:59.454Z,96.24
2018-11-14T08:10:59.446Z,96.34
2018-11-14T08:11:59.465Z,96.20
2018-11-14T08:13:00.293Z,96.09
2018-11-14T08:13:59.425Z,96.14
2018-11-14T08:14:59.410Z,95.94
2018-11-14T08:15:59.411Z,96.20
2018-11-14T08:16:59.401Z,96.86
2018-11-14T08:17:59.416Z,96.66
2018-11-14T08:19:00.354Z,96.51
2018-11-14T08:19:59.348Z,96.41
2018-11-14T08:20:59.368Z,96.05
2018-11-14T08:21:59.336Z,96.51
2018-11-14T08:22:59.331Z,96.61
2018-11-14T08:23:59.326Z,96.20
2018-11-14T08:24:59.309Z,95.68
2018-11-14T08:25:59.286Z,95.57
2018-11-14T08:26:59.302Z,96.09
2018-11-14T08:27:59.284Z,96.20
2018-11-14T08:29:00.782Z,95.37
2018-11-14T08:29:59.284Z,95.37
2018-11-14T08:30:59.243Z,95.99
2018-11-14T08:31:59.269Z,95.99
2018-11-14T08:32:59.239Z,96.61
2018-11-14T08:33:59.202Z,96.05
2018-11-14T08:34:59.803Z,96.36
2018-11-14T08:35:59.181Z,96.41
2018-11-14T08:36:59.172Z,96.47
2018-11-14T08:37:59.290Z,96.15
2018-11-14T08:38:59.228Z,96.26
2018-11-14T08:39:59.791Z,96.26
2018-11-14T08:40:59.130Z,95.95
2018-11-14T08:41:59.135Z,96.36
2018-11-14T08:42:59.108Z,95.90
2018-11-14T08:43:59.322Z,96.11
2018-11-14T08:44:59.082Z,95.80
2018-11-14T08:45:59.070Z,96.21
2018-11-14T08:46:59.070Z,96.37
2018-11-14T08:47:59.056Z,95.03
2018-11-14T08:48:59.060Z,94.82
2018-11-14T08:49:59.029Z,94.82
2018-11-14T08:50:59.051Z,94.72
2018-11-14T08:51:59.775Z,94.10
2018-11-14T08:52:59.209Z,94.52
2018-11-14T08:53:59.019Z,94.93
2018-11-14T08:54:59.779Z,94.82
2018-11-14T08:55:58.967Z,94.72
2018-11-14T08:56:58.960Z,94.78
2018-11-14T08:57:58.979Z,94.99
2018-11-14T08:58:58.947Z,94.99
2018-11-14T08:59:58.922Z,93.96
2018-11-14T09:01:00.794Z,93.96
2018-11-14T09:01:59.779Z,93.85
2018-11-14T09:02:58.914Z,93.91
2018-11-14T09:03:58.932Z,94.37
2018-11-14T09:04:58.898Z,94.17
2018-11-14T09:05:58.965Z,94.27
2018-11-14T09:06:58.954Z,94.12
2018-11-14T09:07:59.011Z,95.05
2018-11-14T09:09:00.883Z,93.91
2018-11-14T09:09:58.912Z,94.06
2018-11-14T09:10:58.838Z,93.91
2018-11-14T09:11:59.781Z,94.23
2018-11-14T09:12:58.810Z,94.12
2018-11-14T09:13:58.871Z,94.12
2018-11-14T09:14:58.806Z,94.23
2018-11-14T09:15:58.815Z,93.98
2018-11-14T09:16:58.766Z,94.12
2018-11-14T09:17:58.741Z,94.02
2018-11-14T09:18:58.732Z,94.84
2018-11-14T09:19:58.709Z,93.87
2018-11-14T09:20:58.695Z,94.90
2018-11-14T09:21:59.275Z,94.18
2018-11-14T09:22:58.683Z,94.08
2018-11-14T09:23:59.291Z,94.03
2018-11-14T09:25:01.353Z,92.59
2018-11-14T09:25:58.641Z,92.59
2018-11-14T09:26:59.276Z,92.59
2018-11-14T09:27:58.631Z,92.86
2018-11-14T09:28:58.624Z,92.14
2018-11-14T09:29:58.612Z,92.14
2018-11-14T09:30:58.591Z,92.44
2018-11-14T09:31:58.579Z,92.44
2018-11-14T09:32:58.610Z,92.44
2018-11-14T09:33:58.572Z,93.06
2018-11-14T09:34:58.743Z,91.31
2018-11-14T09:35:58.549Z,92.30
2018-11-14T09:36:58.568Z,91.68
2018-11-14T09:37:58.515Z,91.68
2018-11-14T09:38:58.578Z,91.58
2018-11-14T09:39:58.493Z,91.58
2018-11-14T09:40:58.594Z,91.33
2018-11-14T09:41:58.472Z,91.44
2018-11-14T09:42:58.464Z,90.51
2018-11-14T09:43:58.487Z,90.61
2018-11-14T09:44:58.438Z,90.92
2018-11-14T09:45:58.428Z,90.57
2018-11-14T09:46:58.428Z,90.26
2018-11-14T09:47:58.410Z,90.16
2018-11-14T09:48:58.787Z,90.26
2018-11-14T09:49:58.390Z,90.36
2018-11-14T09:50:58.396Z,90.88
2018-11-14T09:51:58.405Z,90.67
2018-11-14T09:52:58.398Z,90.57
2018-11-14T09:53:58.358Z,90.47
2018-11-14T09:54:58.335Z,90.57
2018-11-14T09:55:58.536Z,89.54
2018-11-14T09:56:59.426Z,89.03
2018-11-14T09:57:58.513Z,89.70
2018-11-14T09:58:58.311Z,88.98
2018-11-14T09:59:58.280Z,88.78
2018-11-14T10:00:58.273Z,88.68
2018-11-14T10:01:58.260Z,88.37
2018-11-14T10:02:58.294Z,89.50
2018-11-14T10:03:58.282Z,89.25
2018-11-14T10:04:58.228Z,89.04
2018-11-14T10:05:58.320Z,87.51
2018-11-14T10:06:58.203Z,88.29
2018-11-14T10:07:58.243Z,88.12
2018-11-14T10:08:58.192Z,87.37
2018-11-14T10:09:58.290Z,87.46
2018-11-14T10:10:58.199Z,85.62
2018-11-14T10:11:58.177Z,85.93
2018-11-14T10:12:58.146Z,85.41
2018-11-14T10:13:58.157Z,86.19
2018-11-14T10:14:58.286Z,85.27
2018-11-14T10:15:58.113Z,85.38
2018-11-14T10:16:58.096Z,84.69
2018-11-14T10:17:58.085Z,85.06
2018-11-14T10:19:00.774Z,85.78
2018-11-14T10:19:58.291Z,85.17
2018-11-14T10:20:58.052Z,84.66
2018-11-14T10:21:58.044Z,84.66
2018-11-14T10:22:58.781Z,85.47
2018-11-14T10:23:58.772Z,85.47
2018-11-14T10:24:58.034Z,84.76
2018-11-14T10:25:58.000Z,85.33
2018-11-14T10:26:58.024Z,84.86
2018-11-14T10:27:57.992Z,84.00
2018-11-14T10:28:58.773Z,84.52
2018-11-14T10:29:59.785Z,85.23
2018-11-14T10:30:57.998Z,84.92
2018-11-14T10:31:57.936Z,83.80
2018-11-14T10:32:57.929Z,83.69
2018-11-14T10:34:00.777Z,83.07
2018-11-14T10:34:57.931Z,83.28
2018-11-14T10:35:57.895Z,83.07
2018-11-14T10:36:57.879Z,82.46
2018-11-14T10:37:57.874Z,83.96
2018-11-14T10:38:57.860Z,83.65
2018-11-14T10:39:57.979Z,82.97
2018-11-14T10:40:57.844Z,82.93
2018-11-14T10:41:57.830Z,82.87
2018-11-14T10:42:57.934Z,83.14
2018-11-14T10:43:57.810Z,82.73
2018-11-14T10:44:57.794Z,82.83
2018-11-14T10:45:58.773Z,82.87
2018-11-14T10:46:58.290Z,83.34
2018-11-14T10:47:57.828Z,82.32
2018-11-14T10:48:58.272Z,83.39
2018-11-14T10:49:58.272Z,83.14
2018-11-14T10:50:57.748Z,82.93
2018-11-14T10:51:57.723Z,82.22
2018-11-14T10:52:57.765Z,82.22
2018-11-14T10:53:57.703Z,82.12
2018-11-14T10:54:59.284Z,82.42
2018-11-14T10:55:57.696Z,81.60
2018-11-14T10:56:57.677Z,81.81
2018-11-14T10:57:57.795Z,82.01
2018-11-14T10:58:57.654Z,83.04
2018-11-14T10:59:57.635Z,81.81
2018-11-14T11:00:57.638Z,81.91
2018-11-14T11:01:57.639Z,81.81
2018-11-14T11:02:57.635Z,82.22
2018-11-14T11:03:57.617Z,82.83
2018-11-14T11:04:57.583Z,81.40
2018-11-14T11:05:57.572Z,82.18
2018-11-14T11:07:00.283Z,81.46
2018-11-14T11:07:57.601Z,81.98
2018-11-14T11:08:57.549Z,81.57
2018-11-14T11:09:58.278Z,82.01
2018-11-14T11:10:57.528Z,81.98
2018-11-14T11:11:58.274Z,82.32
2018-11-14T11:12:57.517Z,81.09
2018-11-14T11:13:58.346Z,82.22
2018-11-14T11:14:57.476Z,81.15
2018-11-14T11:15:57.469Z,81.77
2018-11-14T11:16:57.464Z,82.39
2018-11-14T11:17:57.445Z,81.36
2018-11-14T11:18:57.448Z,81.98
2018-11-14T11:19:58.302Z,81.98
2018-11-14T11:20:58.273Z,81.57
2018-11-14T11:21:57.469Z,80.54
2018-11-14T11:22:57.400Z,81.46
2018-11-14T11:23:57.413Z,80.85
2018-11-14T11:24:57.376Z,80.44
2018-11-14T11:25:57.365Z,80.51
2018-11-14T11:26:57.376Z,81.26
2018-11-14T11:27:57.342Z,79.93
2018-11-14T11:28:57.348Z,80.44
2018-11-14T11:29:57.324Z,80.19
2018-11-14T11:30:57.308Z,80.33
2018-11-14T11:31:57.343Z,80.95
2018-11-14T11:32:58.275Z,80.54
2018-11-14T11:33:57.815Z,80.19
2018-11-14T11:34:57.778Z,80.33
2018-11-14T11:35:57.259Z,79.89
2018-11-14T11:36:57.244Z,79.52
2018-11-14T11:37:57.287Z,79.21
2018-11-14T11:38:57.292Z,79.89
2018-11-14T11:39:58.209Z,81.43
2018-11-14T11:40:57.204Z,79.07
2018-11-14T11:41:57.200Z,79.52
2018-11-14T11:42:57.182Z,79.17
2018-11-14T11:43:57.310Z,79.72
2018-11-14T11:44:57.158Z,79.58
2018-11-14T11:45:57.174Z,79.99
2018-11-14T11:46:57.178Z,79.82
2018-11-14T11:47:57.774Z,79.62
2018-11-14T11:48:57.137Z,78.90
2018-11-14T11:49:57.114Z,78.35
2018-11-14T11:50:57.170Z,79.68
2018-11-14T11:51:57.082Z,78.66
2018-11-14T11:52:57.076Z,79.58
2018-11-14T11:53:57.074Z,79.89
2018-11-14T11:54:57.051Z,79.38
2018-11-14T11:55:57.047Z,78.59
2018-11-14T11:56:57.040Z,79.38
2018-11-14T11:57:57.776Z,79.17
2018-11-14T11:58:57.039Z,78.76
2018-11-14T11:59:57.799Z,78.76
2018-11-14T12:00:56.988Z,78.66
2018-11-14T12:01:56.992Z,78.66
2018-11-14T12:02:57.816Z,79.07
2018-11-14T12:03:56.976Z,78.56
2018-11-14T12:04:59.984Z,79.07
2018-11-14T12:05:57.856Z,79.38
2018-11-14T12:06:56.927Z,79.17
2018-11-14T12:07:57.807Z,80.30
2018-11-14T12:08:56.921Z,79.17
2018-11-14T12:09:56.889Z,79.99
2018-11-14T12:10:56.880Z,79.93
2018-11-14T12:11:56.880Z,79.72
2018-11-14T12:12:56.939Z,80.19
2018-11-14T12:13:56.978Z,79.72
2018-11-14T12:14:56.845Z,79.93
2018-11-14T12:15:56.821Z,80.33
2018-11-14T12:16:56.830Z,80.03
2018-11-14T12:17:56.896Z,80.33
2018-11-14T12:18:56.864Z,79.72
2018-11-14T12:19:56.778Z,80.33
2018-11-14T12:20:57.303Z,80.33
2018-11-14T12:21:56.796Z,80.40
2018-11-14T12:22:56.744Z,80.03
2018-11-14T12:23:56.759Z,80.30
2018-11-14T12:24:56.743Z,80.60
2018-11-14T12:25:56.930Z,80.30
2018-11-14T12:26:56.718Z,80.51
2018-11-14T12:27:56.695Z,80.44
2018-11-14T12:28:57.289Z,80.51
2018-11-14T12:29:56.673Z,80.40
2018-11-14T12:30:59.505Z,80.91
2018-11-14T12:31:56.646Z,79.68
2018-11-14T12:32:56.635Z,79.00
2018-11-14T12:33:56.832Z,79.58
2018-11-14T12:34:56.672Z,79.52
2018-11-14T12:35:57.273Z,79.62
2018-11-14T12:36:56.604Z,80.44
2018-11-14T12:37:56.583Z,79.52
2018-11-14T12:38:56.865Z,80.13
2018-11-14T12:39:58.270Z,80.23
2018-11-14T12:40:56.577Z,80.33
2018-11-14T12:41:56.561Z,79.41
2018-11-14T12:42:56.527Z,79.52
2018-11-14T12:43:56.543Z,80.13
2018-11-14T12:44:56.566Z,79.62
2018-11-14T12:45:56.535Z,79.82
2018-11-14T12:46:56.484Z,79.31
2018-11-14T12:47:56.494Z,79.52
2018-11-14T12:48:56.461Z,80.44
2018-11-14T12:49:56.808Z,80.44
2018-11-14T12:50:57.295Z,80.64
2018-11-14T12:51:56.428Z,80.44